Time;durP1;ratioP1;P1;durP2;ratioP2;P2;SDS_P1;SDS_P2;PMS_P1;PMS_P2;Temp;Humidity;BMP_temperature;BMP_pressure;BME280_temperature;BME280_humidity;BME280_pressure;Samples;Min_cycle;Max_cycle;Signal;HPM_P1;HPM_P2
2021/01/15 00:01:22;;;;;;;22.83;17.60;;;3.70;99.90;;;3.61;71.97;102209.94;4804387;29;20055;-66
2021/01/15 00:03:51;;;;;;;22.07;17.53;;;3.70;99.90;;;3.75;71.59;102237.63;4776367;30;20147;-66
2021/01/15 00:06:21;;;;;;;25.80;17.97;;;3.80;99.90;;;3.74;71.22;102237.53;4768765;30;20066;-66
2021/01/15 00:08:49;;;;;;;24.15;18.10;;;3.70;99.90;;;3.64;71.33;102231.00;4768546;30;20094;-66
2021/01/15 00:11:21;;;;;;;24.77;18.27;;;3.70;99.90;;;3.74;71.28;102242.78;4768786;30;20097;-66
2021/01/15 00:13:50;;;;;;;21.67;17.10;;;3.70;99.90;;;3.59;70.56;102224.69;4768535;30;20048;-66
2021/01/15 00:16:20;;;;;;;22.07;17.00;;;3.70;99.90;;;3.71;70.24;102245.25;4768620;30;20140;-66
2021/01/15 00:18:48;;;;;;;22.08;16.85;;;3.70;99.90;;;3.70;70.19;102253.94;4768776;30;20146;-67
2021/01/15 00:21:22;;;;;;;20.40;17.07;;;3.70;99.90;;;3.12;70.18;102145.78;4768542;30;20051;-66
2021/01/15 00:23:53;;;;;;;20.07;16.73;;;3.70;99.90;;;3.43;70.05;102236.16;4768609;30;20060;-66
2021/01/15 00:26:22;;;;;;;19.45;16.52;;;3.60;99.90;;;3.59;69.67;102259.59;4768433;30;20059;-66
2021/01/15 00:28:51;;;;;;;21.13;16.77;;;3.60;99.90;;;3.57;69.75;102255.09;4768465;30;20060;-66
2021/01/15 00:31:19;;;;;;;20.57;16.13;;;3.60;99.90;;;3.41;69.24;102235.19;4767213;30;20063;-66
2021/01/15 00:33:47;;;;;;;20.77;17.10;;;3.50;99.90;;;3.48;69.26;102265.16;4768361;30;20060;-66
2021/01/15 00:36:14;;;;;;;20.67;15.97;;;3.50;99.90;;;3.49;69.21;102273.06;4768479;30;20589;-66
2021/01/15 00:38:42;;;;;;;21.27;17.00;;;3.50;99.90;;;3.53;68.52;102272.38;4768259;30;20062;-66
2021/01/15 00:41:10;;;;;;;20.67;16.13;;;3.50;99.90;;;3.40;68.48;102277.88;4768232;30;20056;-67
2021/01/15 00:43:38;;;;;;;22.07;15.97;;;3.40;99.90;;;3.43;68.62;102282.31;4782109;30;20058;-67
2021/01/15 00:46:07;;;;;;;23.13;15.90;;;3.50;99.90;;;3.37;68.34;102293.41;4782095;30;20059;-66
2021/01/15 00:48:36;;;;;;;;;;;3.40;99.90;;;3.39;68.22;102290.84;4768680;30;20388;-67
2021/01/15 00:51:08;;;;;;;22.20;16.33;;;3.40;99.90;;;3.41;67.70;102284.88;4768341;30;19930;-66
2021/01/15 00:53:37;;;;;;;21.87;16.43;;;3.40;99.90;;;3.48;67.83;102299.16;4768123;30;20071;-66
2021/01/15 00:56:06;;;;;;;21.13;15.87;;;3.40;99.90;;;3.48;67.19;102293.91;4767102;30;20063;-67
2021/01/15 00:58:33;;;;;;;20.47;16.33;;;3.50;99.90;;;3.49;67.09;102303.53;4782106;30;20356;-66
2021/01/15 01:01:01;;;;;;;19.83;16.47;;;3.50;99.90;;;3.51;66.86;102301.88;4766686;30;20134;-66
2021/01/15 01:03:42;;;;;;;18.97;15.57;;;3.50;99.90;;;3.38;66.87;102307.38;4783365;29;20113;-66
2021/01/15 01:06:12;;;;;;;22.40;16.47;;;3.50;99.90;;;3.41;66.53;102311.03;4768078;30;20138;-66
2021/01/15 01:08:39;;;;;;;18.90;15.97;;;3.40;99.90;;;3.29;66.57;102325.25;4768012;30;20101;-66
2021/01/15 01:11:12;;;;;;;17.87;15.80;;;3.40;99.90;;;3.33;66.48;102332.41;4771257;30;20406;-66
2021/01/15 01:13:40;;;;;;;23.13;17.33;;;3.40;99.90;;;3.39;66.48;102327.47;4771331;30;20056;-66
2021/01/15 01:16:08;;;;;;;18.47;16.40;;;3.40;99.90;;;3.36;66.37;102333.47;4771087;30;20121;-66
2021/01/15 01:18:35;;;;;;;20.33;16.33;;;3.40;99.90;;;3.43;66.11;102340.75;4784644;30;20231;-66
2021/01/15 01:21:03;;;;;;;19.93;15.93;;;3.40;99.90;;;3.45;65.88;102338.22;4771090;30;20083;-64
2021/01/15 01:23:31;;;;;;;18.47;16.47;;;3.50;99.90;;;3.46;65.72;102355.72;4771522;30;20117;-63
2021/01/15 01:25:58;;;;;;;20.07;15.97;;;3.50;99.90;;;3.51;65.69;102346.34;4784755;30;20465;-63
2021/01/15 01:28:26;;;;;;;23.20;16.07;;;3.50;99.90;;;3.52;65.58;102349.03;4770918;30;20051;-64
2021/01/15 01:30:54;;;;;;;20.90;16.47;;;3.60;99.90;;;3.48;65.45;102354.06;4770722;30;20056;-63
2021/01/15 01:33:21;;;;;;;19.20;15.70;;;3.50;99.90;;;3.44;64.80;102346.91;4771108;30;20148;-63
2021/01/15 01:35:50;;;;;;;20.47;16.10;;;3.50;99.90;;;3.52;64.83;102388.28;4771074;30;20411;-63
2021/01/15 01:38:18;;;;;;;23.27;16.27;;;3.50;99.90;;;3.53;64.95;102390.06;4770927;30;20083;-63
2021/01/15 01:40:46;;;;;;;21.20;16.10;;;3.60;99.90;;;3.31;64.26;102323.59;4770846;30;20071;-63
2021/01/15 01:43:13;;;;;;;21.83;17.17;;;3.60;99.90;;;3.58;64.70;102372.00;4769414;30;20060;-66
2021/01/15 01:45:42;;;;;;;18.80;16.00;;;3.60;99.90;;;3.58;64.33;102372.88;4771066;30;20360;-66
2021/01/15 01:48:10;;;;;;;21.27;16.93;;;3.60;99.90;;;3.64;64.19;102381.00;4770694;30;20105;-66
2021/01/15 01:50:41;;;;;;;20.53;17.43;;;3.70;99.90;;;3.62;64.06;102381.75;4770615;30;20059;-66
2021/01/15 01:53:13;;;;;;;20.80;17.17;;;3.70;99.90;;;3.60;63.99;102383.44;4770749;30;20113;-66
2021/01/15 01:55:42;;;;;;;22.90;17.27;;;3.70;99.90;;;3.61;63.89;102395.69;4770666;30;20058;-66
2021/01/15 01:58:12;;;;;;;22.70;18.63;;;3.60;99.90;;;3.45;64.12;102356.53;4770477;30;20048;-66
2021/01/15 02:00:41;;;;;;;23.43;18.80;;;3.70;99.90;;;3.65;63.83;102400.22;4770722;30;20059;-66
2021/01/15 02:03:09;;;;;;;23.65;19.00;;;3.70;99.90;;;3.75;63.61;102404.19;4787712;29;20060;-65
2021/01/15 02:05:37;;;;;;;24.30;19.00;;;3.80;99.90;;;3.78;63.71;102402.59;4806448;29;20058;-66
2021/01/15 02:08:05;;;;;;;23.23;18.10;;;3.80;99.90;;;3.92;63.83;102409.41;4806261;29;20104;-66
2021/01/15 02:10:42;;;;;;;20.50;18.30;;;3.80;99.90;;;4.00;63.43;102410.66;4806042;29;20047;-66
2021/01/15 02:13:22;;;;;;;22.83;19.50;;;4.00;99.90;;;4.02;63.30;102409.00;4806447;29;20134;-66
2021/01/15 02:15:57;;;;;;;;;;;4.00;99.90;;;3.93;63.25;102410.28;4806524;29;20104;-66
2021/01/15 02:18:33;;;;;;;21.60;18.97;;;4.00;99.90;;;3.91;62.95;102417.19;4806401;29;19978;-66
2021/01/15 02:21:59;;;;;;;23.17;19.57;;;4.00;99.90;;;3.75;63.30;102392.00;4805015;29;20090;-66
2021/01/15 02:24:48;;;;;;;22.30;18.77;;;3.90;99.90;;;3.84;63.24;102420.31;4806007;29;20070;-66
2021/01/15 02:27:31;;;;;;;23.07;18.80;;;3.90;99.90;;;3.64;63.26;102393.19;4805792;29;20055;-66
2021/01/15 02:30:13;;;;;;;25.20;19.73;;;3.80;99.90;;;3.77;63.38;102434.84;4804458;29;20083;-66
2021/01/15 02:32:54;;;;;;;23.07;19.33;;;3.80;99.90;;;3.73;63.25;102419.81;4806039;29;20147;-66
2021/01/15 02:35:45;;;;;;;23.57;20.00;;;3.80;99.90;;;3.78;63.50;102448.81;4805840;29;20054;-66
2021/01/15 02:38:37;;;;;;;21.67;19.03;;;3.80;99.90;;;3.81;62.88;102430.66;4805843;29;20397;-66
2021/01/15 02:41:22;;;;;;;23.17;19.10;;;3.80;99.90;;;3.79;62.55;102424.44;4805690;29;20058;-66
2021/01/15 02:43:56;;;;;;;24.07;19.87;;;3.80;99.90;;;3.81;62.73;102436.78;4805607;29;20050;-66
2021/01/15 02:46:51;;;;;;;23.63;19.50;;;3.80;99.90;;;3.77;62.63;102445.31;4805788;29;20082;-66
2021/01/15 02:49:20;;;;;;;23.80;20.13;;;3.80;99.90;;;3.73;62.63;102438.13;4805543;29;20141;-66
2021/01/15 02:51:48;;;;;;;22.67;19.30;;;3.80;99.90;;;3.80;62.87;102450.66;4805561;29;20065;-66
2021/01/15 02:54:15;;;;;;;26.47;19.70;;;3.80;99.90;;;3.84;62.78;102456.94;4805507;29;20120;-66
2021/01/15 02:56:43;;;;;;;22.23;19.20;;;3.80;99.90;;;3.86;62.33;102457.91;4804247;29;20055;-66
2021/01/15 02:59:10;;;;;;;22.47;17.90;;;3.80;99.90;;;3.83;62.38;102463.94;4804180;29;20460;-66
2021/01/15 03:01:51;;;;;;;23.00;19.90;;;3.80;99.90;;;3.85;62.44;102462.28;4789206;29;20055;-66
2021/01/15 03:04:31;;;;;;;25.20;19.80;;;3.80;99.90;;;3.89;62.25;102464.19;4805167;29;20063;-66
2021/01/15 03:07:02;;;;;;;22.08;19.35;;;3.90;99.90;;;3.81;61.84;102464.66;4803746;29;20058;-64
2021/01/15 03:09:36;;;;;;;25.10;19.23;;;3.80;99.90;;;3.75;61.98;102464.38;4805344;29;20058;-64
2021/01/15 03:12:06;;;;;;;21.80;19.10;;;3.80;99.90;;;3.70;62.15;102444.94;4803964;29;20811;-64
2021/01/15 03:14:36;;;;;;;21.08;18.23;;;3.70;99.90;;;3.77;61.83;102462.72;4805175;29;20055;-64
2021/01/15 03:17:08;;;;;;;22.02;18.60;;;3.80;99.90;;;3.77;62.05;102465.34;4805021;29;20055;-64
2021/01/15 03:19:38;;;;;;;22.67;18.93;;;3.70;99.90;;;3.78;61.92;102467.13;4805155;29;20448;-64
2021/01/15 03:22:10;;;;;;;20.55;18.15;;;3.70;99.90;;;3.74;61.83;102471.31;4804919;29;20043;-64
2021/01/15 03:24:37;;;;;;;21.03;17.70;;;3.70;99.90;;;3.75;61.26;102478.34;4804873;29;20058;-64
2021/01/15 03:27:06;;;;;;;20.37;18.17;;;3.80;99.90;;;3.72;61.02;102479.94;4804861;29;20079;-64
2021/01/15 03:29:33;;;;;;;25.20;18.20;;;3.70;99.90;;;3.71;61.10;102475.50;4804674;29;20455;-64
2021/01/15 03:32:01;;;;;;;20.57;17.83;;;3.70;99.90;;;3.70;61.15;102476.34;4804387;29;20423;-64
2021/01/15 03:34:28;;;;;;;25.67;18.47;;;3.70;99.90;;;3.79;61.38;102480.31;4804797;29;20244;-64
2021/01/15 03:36:56;;;;;;;22.57;17.57;;;3.70;99.90;;;3.78;60.35;102486.34;4804625;29;20061;-64
2021/01/15 03:39:24;;;;;;;20.07;16.63;;;3.70;99.90;;;3.76;60.53;102485.38;4803694;29;20054;-64
2021/01/15 03:41:51;;;;;;;20.47;16.93;;;3.70;99.90;;;3.74;60.57;102478.25;4804682;29;20070;-64
2021/01/15 03:44:19;;;;;;;21.80;17.47;;;3.70;99.90;;;3.83;59.73;102478.72;4804728;29;20454;-64
2021/01/15 03:46:46;;;;;;;17.93;16.03;;;3.80;99.90;;;3.94;60.05;102491.50;4804557;29;20046;-64
2021/01/15 03:49:14;;;;;;;24.00;16.37;;;3.90;99.90;;;3.96;59.94;102497.72;4804640;29;20051;-64
2021/01/15 03:51:41;;;;;;;19.83;16.73;;;3.90;99.90;;;3.98;59.85;102495.16;4804385;29;20055;-64
2021/01/15 03:54:10;;;;;;;17.40;15.60;;;3.90;99.90;;;4.07;59.69;102501.72;4804500;29;20135;-64
2021/01/15 03:56:37;;;;;;;19.87;15.43;;;4.00;99.90;;;4.08;59.55;102507.88;4804491;29;20062;-64
2021/01/15 03:59:04;;;;;;;20.33;16.90;;;4.00;99.90;;;4.10;59.28;102501.00;4804580;29;20058;-64
2021/01/15 04:01:32;;;;;;;20.30;16.20;;;4.00;99.90;;;4.12;59.05;102502.84;4804592;29;20402;-64
2021/01/15 04:03:59;;;;;;;17.80;15.73;;;4.10;99.90;;;4.17;59.15;102497.81;4804105;29;20074;-64
2021/01/15 04:06:27;;;;;;;18.03;16.00;;;4.10;99.90;;;4.22;59.55;102506.81;4804391;29;20154;-64
2021/01/15 04:08:55;;;;;;;17.90;15.93;;;4.20;99.90;;;4.30;58.83;102516.81;4804245;29;20055;-64
2021/01/15 04:11:23;;;;;;;16.60;14.90;;;4.20;99.90;;;4.37;59.05;102523.25;4804347;29;20130;-64
2021/01/15 04:13:50;;;;;;;16.83;15.03;;;4.30;99.90;;;4.38;58.97;102523.31;4804163;29;20409;-65
2021/01/15 04:16:18;;;;;;;21.53;14.87;;;4.30;99.90;;;4.42;58.47;102525.25;4803159;29;20047;-65
2021/01/15 04:18:46;;;;;;;16.17;14.37;;;4.40;99.90;;;4.47;58.55;102539.44;4804719;29;20076;-65
2021/01/15 04:21:16;;;;;;;21.37;15.33;;;4.40;99.90;;;4.48;58.33;102529.88;4804355;29;20405;-64
2021/01/15 04:23:44;;;;;;;17.48;14.48;;;4.50;99.90;;;4.52;58.71;102535.34;4804469;29;20458;-64
2021/01/15 04:26:17;;;;;;;20.40;15.30;;;4.50;99.90;;;4.65;58.04;102538.50;4804182;29;20058;-64
2021/01/15 04:28:46;;;;;;;16.37;14.67;;;4.60;99.90;;;4.65;58.63;102530.63;4804184;29;20057;-64
2021/01/15 04:31:17;;;;;;;16.10;14.43;;;4.60;99.90;;;4.66;58.25;102529.81;4804366;29;20108;-65
2021/01/15 04:33:44;;;;;;;17.00;14.20;;;4.70;99.90;;;4.68;57.89;102525.56;4804401;29;20051;-65
2021/01/15 04:36:12;;;;;;;15.50;13.53;;;4.70;99.90;;;4.50;58.01;102525.59;4804142;29;20429;-65
2021/01/15 04:38:41;;;;;;;15.77;14.17;;;4.60;99.90;;;4.63;57.95;102534.94;4804156;29;20088;-64
2021/01/15 04:41:09;;;;;;;15.20;12.87;;;4.60;99.90;;;4.72;57.86;102540.59;4788026;29;20070;-64
2021/01/15 04:43:39;;;;;;;15.53;13.67;;;4.60;99.90;;;4.71;58.35;102541.41;4804452;29;20130;-64
2021/01/15 04:46:08;;;;;;;15.93;14.33;;;4.60;99.90;;;4.73;57.96;102552.84;4807568;29;20059;-64
2021/01/15 04:48:41;;;;;;;16.53;13.87;;;4.70;99.90;;;4.80;58.02;102553.22;4806376;29;20067;-64
2021/01/15 04:51:15;;;;;;;17.25;14.50;;;4.70;99.90;;;4.79;57.97;102554.06;4807453;29;20050;-64
2021/01/15 04:53:53;;;;;;;17.47;14.17;;;4.70;99.90;;;4.82;58.14;102554.19;4807617;29;20455;-64
2021/01/15 04:56:31;;;;;;;16.13;14.40;;;4.70;99.90;;;4.84;58.25;102555.13;4806239;29;20066;-64
2021/01/15 04:59:03;;;;;;;15.50;13.73;;;4.70;99.90;;;4.86;58.27;102552.63;4807389;29;20470;-65
2021/01/15 05:01:43;;;;;;;17.37;14.63;;;4.80;99.90;;;4.89;58.39;102563.22;4807316;29;20112;-66
2021/01/15 05:04:18;;;;;;;16.27;13.90;;;4.80;99.90;;;4.91;58.35;102557.25;4807286;29;20506;-65
2021/01/15 05:06:48;;;;;;;17.75;15.13;;;4.80;99.90;;;4.99;58.62;102560.19;4807372;29;20059;-65
2021/01/15 05:09:24;;;;;;;18.17;14.57;;;4.90;99.90;;;4.95;58.60;102560.88;4807256;29;20417;-65
2021/01/15 05:11:53;;;;;;;18.90;14.73;;;4.90;99.90;;;4.86;58.11;102547.38;4805829;29;20162;-65
2021/01/15 05:14:21;;;;;;;16.10;13.30;;;4.90;99.90;;;4.37;57.79;102444.66;4807154;29;20054;-65
2021/01/15 05:16:51;;;;;;;19.63;14.97;;;4.90;99.90;;;5.03;58.24;102564.75;4807077;29;20055;-65
2021/01/15 05:19:19;;;;;;;17.60;14.63;;;5.00;99.90;;;5.03;58.51;102570.00;4807120;29;20579;-65
2021/01/15 05:21:51;;;;;;;16.83;14.90;;;4.90;99.90;;;4.96;59.08;102570.53;4807251;29;20649;-65
2021/01/15 05:24:19;;;;;;;17.40;14.87;;;4.80;99.90;;;4.97;58.78;102574.97;4790678;29;20505;-65
2021/01/15 05:26:47;;;;;;;19.77;14.47;;;4.80;99.90;;;5.00;59.01;102583.88;4806939;29;20563;-65
2021/01/15 05:29:16;;;;;;;17.57;15.30;;;4.90;99.90;;;5.06;58.94;102572.75;4807124;29;20393;-65
2021/01/15 05:31:54;;;;;;;16.47;14.10;;;4.90;99.90;;;5.08;58.42;102577.25;4807023;29;20055;-65
2021/01/15 05:34:23;;;;;;;15.77;13.77;;;4.90;99.90;;;5.05;58.84;102571.84;4806914;29;20051;-65
2021/01/15 05:36:52;;;;;;;16.27;14.33;;;4.90;99.90;;;5.08;58.68;102572.00;4806835;29;20051;-65
2021/01/15 05:39:22;;;;;;;17.13;13.93;;;5.00;99.90;;;5.07;58.46;102569.31;4806708;29;20722;-66
2021/01/15 05:41:51;;;;;;;17.80;14.05;;;5.00;99.90;;;4.98;58.75;102571.50;4806623;29;20062;-66
2021/01/15 05:44:28;;;;;;;18.00;13.80;;;5.00;99.90;;;5.00;58.57;102575.09;4806187;29;20058;-65
2021/01/15 05:46:58;;;;;;;17.00;14.17;;;4.90;99.90;;;4.86;58.16;102557.88;4806703;29;20051;-64
2021/01/15 05:49:28;;;;;;;16.30;13.83;;;4.90;99.90;;;5.02;58.40;102579.59;4806512;29;20055;-65
2021/01/15 05:52:06;;;;;;;16.70;14.83;;;4.90;99.90;;;5.00;58.53;102586.47;4806377;29;20409;-64
2021/01/15 05:54:35;;;;;;;15.17;13.57;;;5.00;99.90;;;5.01;58.27;102592.63;4806671;29;20055;-64
2021/01/15 05:57:04;;;;;;;18.50;15.43;;;4.90;99.90;;;5.00;58.56;102601.31;4806262;29;20050;-65
2021/01/15 05:59:38;;;;;;;16.87;13.33;;;4.80;99.90;;;5.03;58.54;102596.22;4806206;29;20054;-65
2021/01/15 06:02:07;;;;;;;16.50;14.47;;;4.90;99.90;;;4.91;58.44;102595.66;4806323;29;20050;-65
2021/01/15 06:04:36;;;;;;;15.00;13.37;;;4.90;99.90;;;5.09;58.65;102609.63;4806233;29;20150;-65
2021/01/15 06:07:20;;;;;;;16.07;14.40;;;4.90;99.90;;;5.05;58.29;102613.78;4806346;29;20051;-65
2021/01/15 06:09:49;;;;;;;16.80;14.03;;;4.90;99.90;;;5.11;58.53;102615.84;4806331;29;20047;-65
2021/01/15 06:12:19;;;;;;;15.93;14.00;;;5.00;99.90;;;5.10;58.24;102622.78;4806166;29;20158;-65
2021/01/15 06:14:56;;;;;;;16.35;13.68;;;5.00;99.90;;;5.10;58.17;102627.13;4806031;29;20467;-65
2021/01/15 06:17:25;;;;;;;17.53;14.40;;;5.00;99.90;;;4.96;58.19;102602.00;4806222;29;20430;-65
2021/01/15 06:19:57;;;;;;;15.88;14.18;;;5.00;99.90;;;5.14;58.63;102618.56;4806098;29;20161;-65
2021/01/15 06:22:31;;;;;;;16.27;13.93;;;5.00;99.90;;;4.89;57.71;102627.06;4806086;29;20051;-65
2021/01/15 06:25:14;;;;;;;16.33;13.90;;;4.90;99.90;;;4.84;58.20;102625.91;4805825;29;20067;-65
2021/01/15 06:27:43;;;;;;;16.37;14.00;;;4.80;99.90;;;4.83;58.46;102634.63;4805877;29;20047;-65
2021/01/15 06:30:15;;;;;;;16.23;14.27;;;4.80;99.90;;;4.80;57.92;102637.09;4789275;29;20131;-65
2021/01/15 06:32:45;;;;;;;17.87;15.13;;;4.80;99.90;;;4.95;58.48;102642.16;4789590;29;20059;-65
2021/01/15 06:35:27;;;;;;;17.37;15.07;;;4.80;99.90;;;4.80;58.21;102617.88;4805739;29;20066;-66
2021/01/15 06:38:03;;;;;;;18.13;15.07;;;4.90;99.90;;;5.09;58.25;102647.22;4805684;29;20415;-62
2021/01/15 06:40:33;;;;;;;17.50;15.20;;;5.00;99.90;;;5.01;58.37;102645.97;4805702;29;20062;-64
2021/01/15 06:43:04;;;;;;;17.85;14.93;;;5.00;99.90;;;5.07;57.81;102653.22;4805425;29;20066;-64
2021/01/15 06:45:43;;;;;;;16.10;14.50;;;5.00;99.90;;;4.90;57.91;102626.22;4805615;29;20062;-65
2021/01/15 06:48:13;;;;;;;16.00;13.90;;;5.00;99.90;;;5.13;58.00;102658.75;4805387;29;20473;-64
2021/01/15 06:50:42;;;;;;;18.02;14.18;;;5.10;99.90;;;5.18;57.64;102657.25;4805445;29;20111;-64
2021/01/15 06:53:19;;;;;;;20.20;16.27;;;5.10;99.90;;;5.20;57.53;102661.75;4805326;29;20046;-63
2021/01/15 06:55:48;;;;;;;18.57;14.83;;;5.10;99.90;;;5.11;57.87;102661.28;4805315;29;20058;-64
2021/01/15 06:58:25;;;;;;;17.50;15.23;;;5.10;99.90;;;5.23;58.16;102672.34;4805290;29;20092;-65
2021/01/15 07:01:20;;;;;;;17.73;15.23;;;5.10;99.90;;;5.21;58.00;102667.84;4805611;29;20069;-65
2021/01/15 07:04:29;;;;;;;18.33;15.27;;;5.10;99.90;;;5.24;57.51;102675.88;4805265;29;20063;-64
2021/01/15 07:07:13;;;;;;;19.53;14.87;;;5.20;99.90;;;5.17;58.03;102677.31;4730978;30;20171;-65
2021/01/15 07:09:43;;;;;;;18.13;14.70;;;5.10;99.90;;;5.23;57.94;102680.22;4802224;29;20067;-63
2021/01/15 07:12:12;;;;;;;21.00;15.68;;;5.10;99.90;;;5.24;57.73;102686.38;4804978;29;20505;-63
2021/01/15 07:14:54;;;;;;;17.63;15.37;;;5.20;99.90;;;5.30;58.29;102686.66;4805091;29;20058;-64
2021/01/15 07:17:35;;;;;;;18.30;15.50;;;5.20;99.90;;;5.26;57.55;102713.59;4804968;29;20066;-64
2021/01/15 07:20:15;;;;;;;19.25;15.43;;;5.20;99.90;;;5.34;57.73;102701.72;4804873;29;20061;-64
2021/01/15 07:22:49;;;;;;;;;;;5.30;99.90;;;5.38;57.50;102699.28;4805413;29;20054;-66
2021/01/15 07:25:18;;;;;;;21.33;15.13;;;5.30;99.90;;;5.37;57.18;102696.59;4804885;29;19932;-65
2021/01/15 07:27:47;;;;;;;17.70;15.17;;;5.30;99.90;;;4.98;57.22;102627.47;4804681;29;20569;-61
2021/01/15 07:30:20;;;;;;;17.87;14.37;;;5.30;99.90;;;5.29;57.31;102706.75;4804834;29;20055;-61
2021/01/15 07:32:50;;;;;;;18.43;15.67;;;5.20;99.90;;;5.31;57.64;102701.56;4805065;29;20061;-62
2021/01/15 07:35:22;;;;;;;19.03;15.43;;;5.20;99.90;;;5.38;57.94;102716.78;4804867;29;20047;-62
2021/01/15 07:37:49;;;;;;;19.43;16.40;;;5.30;99.90;;;5.32;57.63;102711.25;4804688;29;20055;-62
2021/01/15 07:40:19;;;;;;;19.70;15.40;;;5.30;99.90;;;5.37;57.76;102723.75;4803317;29;20497;-61
2021/01/15 07:42:53;;;;;;;16.80;14.43;;;5.20;99.90;;;5.40;57.70;102712.50;4804770;29;20053;-61
2021/01/15 07:45:56;;;;;;;17.80;15.23;;;5.30;99.90;;;5.45;57.98;102726.72;4803421;29;20791;-62
2021/01/15 07:48:25;;;;;;;19.17;16.03;;;5.30;99.90;;;5.43;57.44;102728.38;4805129;29;20350;-62
2021/01/15 07:50:54;;;;;;;16.70;14.90;;;5.30;99.90;;;5.45;57.68;102731.97;4803014;29;20055;-62
2021/01/15 07:53:40;;;;;;;20.77;16.47;;;5.30;99.90;;;5.45;58.08;102734.59;4804608;29;20129;-62
2021/01/15 07:56:09;;;;;;;20.30;15.97;;;5.30;99.90;;;5.50;57.43;102738.31;4804649;29;20058;-61
2021/01/15 07:58:49;;;;;;;21.03;16.17;;;5.30;99.90;;;5.50;57.24;102735.69;4788166;29;20117;-62
2021/01/15 08:01:18;;;;;;;19.77;14.98;;;5.30;99.90;;;5.52;57.25;102734.03;4805037;29;20055;-62
2021/01/15 08:03:49;;;;;;;18.27;15.10;;;5.30;99.90;;;5.53;57.60;102731.47;4804415;29;20200;-62
2021/01/15 08:06:18;;;;;;;19.70;16.00;;;5.30;99.90;;;5.52;57.41;102728.78;4803100;29;20065;-61
2021/01/15 08:09:00;;;;;;;18.97;14.60;;;5.30;99.90;;;5.55;57.59;102734.19;4788057;29;20055;-62
2021/01/15 08:11:29;;;;;;;18.67;16.17;;;5.30;99.90;;;5.53;57.46;102741.97;4804175;29;20057;-62
2021/01/15 08:14:13;;;;;;;22.07;15.93;;;5.30;99.90;;;5.54;57.26;102742.88;4803055;29;20149;-62
2021/01/15 08:16:42;;;;;;;17.90;15.97;;;5.30;99.90;;;5.54;57.74;102748.13;4804068;29;20078;-61
2021/01/15 08:19:11;;;;;;;18.93;16.03;;;5.40;99.90;;;5.55;57.69;102749.03;4805034;29;20146;-61
2021/01/15 08:21:42;;;;;;;16.87;14.50;;;5.40;99.90;;;5.14;57.84;102673.66;4806723;29;20112;-61
2021/01/15 08:24:11;;;;;;;21.90;15.70;;;5.40;99.90;;;5.57;58.11;102753.53;4807891;29;20435;-62
2021/01/15 08:26:56;;;;;;;22.80;16.20;;;5.40;99.90;;;5.63;57.97;102753.81;4807830;29;20108;-62
2021/01/15 08:29:28;;;;;;;19.90;16.57;;;5.40;99.90;;;5.61;57.75;102760.72;4808160;29;20457;-61
2021/01/15 08:31:58;;;;;;;22.73;15.70;;;5.40;99.90;;;5.68;58.12;102761.88;4807892;29;20446;-61
2021/01/15 08:34:32;;;;;;;21.67;16.73;;;5.40;99.90;;;5.52;58.58;102754.16;4806352;29;20082;-62
2021/01/15 08:37:03;;;;;;;21.60;15.97;;;5.40;99.90;;;5.61;58.72;102773.84;4807680;29;20061;-62
2021/01/15 08:39:46;;;;;;;20.90;16.27;;;5.40;99.90;;;5.57;58.72;102764.03;4807806;29;20134;-62
2021/01/15 08:42:14;;;;;;;21.03;17.43;;;5.40;99.90;;;5.59;58.56;102772.88;4807663;29;20067;-62
2021/01/15 08:44:46;;;;;;;23.80;17.40;;;5.40;99.90;;;5.50;58.95;102761.94;4807563;29;20050;-62
2021/01/15 08:47:17;;;;;;;19.97;16.90;;;5.40;99.90;;;5.57;59.25;102778.88;4807749;29;20069;-61
2021/01/15 08:49:53;;;;;;;21.67;17.20;;;5.30;99.90;;;5.61;59.53;102775.56;4806200;29;20505;-64
2021/01/15 08:52:24;;;;;;;21.00;16.67;;;5.40;99.90;;;5.60;59.52;102771.13;4807394;29;20089;-64
2021/01/15 08:54:53;;;;;;;21.35;16.63;;;5.40;99.90;;;5.67;59.35;102781.97;4807455;29;20047;-64
2021/01/15 08:57:25;;;;;;;21.50;17.50;;;5.40;99.90;;;5.74;59.20;102789.31;4807219;29;20077;-63
2021/01/15 08:59:52;;;;;;;24.97;16.87;;;5.50;99.90;;;5.76;59.14;102797.25;4807361;29;20054;-63
2021/01/15 09:02:22;;;;;;;22.53;17.67;;;5.50;99.90;;;5.60;59.26;102803.53;4807284;29;20096;-63
2021/01/15 09:04:51;;;;;;;19.43;16.90;;;5.40;99.90;;;5.55;59.38;102798.91;4807082;29;20508;-63
2021/01/15 09:07:21;;;;;;;21.07;17.93;;;5.30;99.90;;;5.61;59.48;102805.34;4807622;29;20066;-64
2021/01/15 09:09:51;;;;;;;23.33;16.70;;;5.40;99.90;;;5.69;59.19;102803.94;4806960;29;20072;-62
2021/01/15 09:12:21;;;;;;;22.20;18.50;;;5.40;99.90;;;5.53;59.21;102809.34;4807375;29;20061;-64
2021/01/15 09:14:49;;;;;;;24.92;17.83;;;5.30;99.90;;;5.53;59.25;102814.59;4806252;29;20070;-65
2021/01/15 09:17:17;;;;;;;24.40;16.80;;;5.30;99.90;;;5.47;59.39;102820.44;4807210;29;20066;-65
2021/01/15 09:19:45;;;;;;;24.33;18.10;;;5.30;99.90;;;5.58;59.10;102831.44;4805719;29;20047;-68
2021/01/15 09:22:18;;;;;;;24.13;16.93;;;5.30;99.90;;;5.43;59.25;102833.34;4806878;29;20413;-63
2021/01/15 09:24:46;;;;;;;23.60;17.40;;;5.20;99.90;;;5.41;59.40;102835.00;4806963;29;20054;-65
2021/01/15 09:27:17;;;;;;;24.87;17.20;;;5.20;99.90;;;5.39;59.25;102824.44;4807232;29;20082;-65
2021/01/15 09:29:45;;;;;;;23.57;18.03;;;5.20;99.90;;;5.36;60.12;102836.50;4806517;29;20108;-65
2021/01/15 09:32:13;;;;;;;23.93;18.07;;;5.20;99.90;;;5.21;60.14;102830.50;4806815;29;20744;-65
2021/01/15 09:34:41;;;;;;;23.87;17.27;;;5.10;99.90;;;5.38;59.71;102845.34;4806743;29;20055;-61
2021/01/15 09:37:08;;;;;;;23.53;18.33;;;5.10;99.90;;;5.43;59.53;102842.13;4790650;29;20065;-62
2021/01/15 09:39:36;;;;;;;22.83;17.97;;;5.20;99.90;;;5.46;59.21;102843.97;4806813;29;20054;-65
2021/01/15 09:42:05;;;;;;;23.07;17.77;;;5.30;99.90;;;5.53;58.99;102857.44;4806689;29;20051;-63
2021/01/15 09:44:33;;;;;;;26.70;18.63;;;5.30;99.90;;;5.65;58.84;102854.53;4805381;29;20063;-68
2021/01/15 09:47:02;;;;;;;23.07;18.80;;;5.40;99.90;;;5.73;58.84;102861.03;4805422;29;20063;-65
2021/01/15 09:49:31;;;;;;;24.30;18.43;;;5.50;99.90;;;5.56;59.13;102856.69;4806453;29;20061;-66
2021/01/15 09:51:59;;;;;;;26.97;18.17;;;5.50;99.90;;;5.52;59.43;102857.38;4806423;29;20050;-66
2021/01/15 09:54:26;;;;;;;23.93;18.60;;;5.40;99.90;;;5.65;58.87;102857.16;4806516;29;20050;-67
2021/01/15 09:56:53;;;;;;;24.40;18.13;;;5.40;99.90;;;5.76;58.98;102861.19;4790187;29;20051;-66
2021/01/15 09:59:22;;;;;;;26.37;18.17;;;5.60;99.90;;;5.74;59.18;102868.09;4806531;29;20123;-66
2021/01/15 10:01:51;;;;;;;28.50;18.93;;;5.50;99.90;;;5.69;58.93;102874.81;4806305;29;20053;-66
2021/01/15 10:04:19;;;;;;;25.03;18.43;;;5.50;99.90;;;5.82;58.69;102871.97;4806023;29;20058;-66
2021/01/15 10:06:46;;;;;;;24.90;18.97;;;5.70;99.90;;;5.86;58.65;102857.28;4805111;29;20054;-66
2021/01/15 10:09:16;;;;;;;21.57;18.13;;;5.70;99.90;;;6.02;58.28;102868.56;4806254;29;20112;-67
2021/01/15 10:11:46;;;;;;;25.53;18.67;;;5.80;99.90;;;6.08;57.38;102865.31;4806179;29;20447;-66
2021/01/15 10:14:15;;;;;;;26.33;18.15;;;5.90;99.90;;;6.13;57.25;102867.34;4806222;29;20103;-66
2021/01/15 10:16:47;;;;;;;25.43;19.43;;;5.90;99.90;;;6.20;56.83;102876.38;4806114;29;20131;-66
2021/01/15 10:19:15;;;;;;;21.97;17.13;;;6.00;99.90;;;6.14;57.08;102871.75;4804939;29;20474;-65
2021/01/15 10:21:44;;;;;;;24.83;18.93;;;6.00;99.90;;;6.21;57.10;102875.56;4806025;29;20111;-66
2021/01/15 10:24:13;;;;;;;26.53;19.43;;;6.10;99.90;;;6.16;57.63;102875.34;4805943;29;20046;-67
2021/01/15 10:26:42;;;;;;;24.43;18.03;;;6.00;99.90;;;6.22;57.48;102880.88;4805811;29;20095;-67
2021/01/15 10:29:11;;;;;;;24.10;17.97;;;6.00;99.90;;;6.19;57.68;102883.34;4805643;29;20129;-67
2021/01/15 10:31:45;;;;;;;35.97;19.17;;;6.00;99.90;;;6.20;57.45;102882.53;4805696;29;20059;-67